sensor_id;sensor_type;location;lat;lon;timestamp;pressure;altitude;pressure_sealevel;temperature;humidity
64139;BME280;50435;43.700;-79.318;2022-12-18T00:00:49;99446.65;;;0.64;52.57
64139;BME280;50435;43.700;-79.318;2022-12-18T00:03:16;99447.57;;;0.53;52.76
64139;BME280;50435;43.700;-79.318;2022-12-18T00:05:47;99449.76;;;0.54;52.88
64139;BME280;50435;43.700;-79.318;2022-12-18T00:08:15;99452.84;;;0.75;52.85
64139;BME280;50435;43.700;-79.318;2022-12-18T00:10:43;99453.72;;;0.57;52.69
64139;BME280;50435;43.700;-79.318;2022-12-18T00:13:12;99453.13;;;0.46;52.87
64139;BME280;50435;43.700;-79.318;2022-12-18T00:15:39;99459.63;;;0.60;52.58
64139;BME280;50435;43.700;-79.318;2022-12-18T00:18:07;99456.90;;;0.61;52.31
64139;BME280;50435;43.700;-79.318;2022-12-18T00:20:36;99458.30;;;0.53;52.54
64139;BME280;50435;43.700;-79.318;2022-12-18T00:23:05;99458.53;;;0.45;52.64
64139;BME280;50435;43.700;-79.318;2022-12-18T00:25:33;99464.35;;;0.87;52.18
64139;BME280;50435;43.700;-79.318;2022-12-18T00:28:02;99463.50;;;0.07;52.25
64139;BME280;50435;43.700;-79.318;2022-12-18T00:30:30;99468.45;;;0.69;52.04
64139;BME280;50435;43.700;-79.318;2022-12-18T00:32:57;99469.89;;;0.52;52.05
64139;BME280;50435;43.700;-79.318;2022-12-18T00:35:25;99471.89;;;0.43;52.23
64139;BME280;50435;43.700;-79.318;2022-12-18T00:37:52;99475.28;;;0.76;52.02
64139;BME280;50435;43.700;-79.318;2022-12-18T00:40:20;99471.47;;;0.60;52.26
64139;BME280;50435;43.700;-79.318;2022-12-18T00:42:47;99475.36;;;0.79;52.20
64139;BME280;50435;43.700;-79.318;2022-12-18T00:45:15;99474.96;;;0.54;52.18
64139;BME280;50435;43.700;-79.318;2022-12-18T00:47:42;99477.78;;;0.50;52.23
64139;BME280;50435;43.700;-79.318;2022-12-18T00:50:10;99482.22;;;0.32;52.10
64139;BME280;50435;43.700;-79.318;2022-12-18T00:52:37;99484.14;;;0.70;52.39
64139;BME280;50435;43.700;-79.318;2022-12-18T00:55:05;99485.88;;;0.23;52.29
64139;BME280;50435;43.700;-79.318;2022-12-18T00:57:33;99486.19;;;0.48;52.18
64139;BME280;50435;43.700;-79.318;2022-12-18T01:00:01;99490.20;;;0.13;52.39
64139;BME280;50435;43.700;-79.318;2022-12-18T01:02:29;99489.07;;;0.57;52.43
64139;BME280;50435;43.700;-79.318;2022-12-18T01:04:56;99485.41;;;0.37;52.26
64139;BME280;50435;43.700;-79.318;2022-12-18T01:07:23;99484.71;;;0.40;52.05
64139;BME280;50435;43.700;-79.318;2022-12-18T01:09:51;99486.04;;;0.38;52.01
64139;BME280;50435;43.700;-79.318;2022-12-18T01:12:18;99491.16;;;0.36;52.20
64139;BME280;50435;43.700;-79.318;2022-12-18T01:14:46;99490.53;;;0.11;52.60
64139;BME280;50435;43.700;-79.318;2022-12-18T01:17:13;99493.69;;;0.19;52.47
64139;BME280;50435;43.700;-79.318;2022-12-18T01:19:41;99501.98;;;0.24;52.23
64139;BME280;50435;43.700;-79.318;2022-12-18T01:22:09;99504.53;;;0.23;52.35
64139;BME280;50435;43.700;-79.318;2022-12-18T01:24:36;99501.09;;;0.36;52.41
64139;BME280;50435;43.700;-79.318;2022-12-18T01:27:04;99502.78;;;-0.03;52.25
64139;BME280;50435;43.700;-79.318;2022-12-18T01:29:31;99508.29;;;0.02;52.48
64139;BME280;50435;43.700;-79.318;2022-12-18T01:31:58;99510.04;;;0.28;52.47
64139;BME280;50435;43.700;-79.318;2022-12-18T01:34:26;99499.73;;;-0.09;52.23
64139;BME280;50435;43.700;-79.318;2022-12-18T01:36:54;99501.35;;;0.34;52.40
64139;BME280;50435;43.700;-79.318;2022-12-18T01:39:21;99502.82;;;0.40;52.16
64139;BME280;50435;43.700;-79.318;2022-12-18T01:41:48;99510.25;;;0.23;52.63
64139;BME280;50435;43.700;-79.318;2022-12-18T01:45:26;99512.25;;;0.15;52.30
64139;BME280;50435;43.700;-79.318;2022-12-18T01:47:55;99507.98;;;0.43;52.27
64139;BME280;50435;43.700;-79.318;2022-12-18T01:50:28;99505.40;;;0.47;52.06
64139;BME280;50435;43.700;-79.318;2022-12-18T01:53:00;99506.22;;;0.44;52.19
64139;BME280;50435;43.700;-79.318;2022-12-18T01:55:32;99508.15;;;0.23;52.64
64139;BME280;50435;43.700;-79.318;2022-12-18T01:58:03;99507.85;;;0.07;52.53
64139;BME280;50435;43.700;-79.318;2022-12-18T02:00:30;99508.04;;;0.33;52.38
64139;BME280;50435;43.700;-79.318;2022-12-18T02:02:58;99511.04;;;0.01;52.62
64139;BME280;50435;43.700;-79.318;2022-12-18T02:05:34;99508.85;;;-0.29;52.84
64139;BME280;50435;43.700;-79.318;2022-12-18T02:08:10;99508.66;;;0.31;52.40
64139;BME280;50435;43.700;-79.318;2022-12-18T02:10:46;99505.18;;;0.33;52.44
64139;BME280;50435;43.700;-79.318;2022-12-18T02:13:20;99506.29;;;0.36;52.38
64139;BME280;50435;43.700;-79.318;2022-12-18T02:15:58;99502.11;;;0.33;52.35
64139;BME280;50435;43.700;-79.318;2022-12-18T02:18:32;99499.21;;;-0.04;52.77
64139;BME280;50435;43.700;-79.318;2022-12-18T02:21:08;99495.11;;;-0.65;52.53
64139;BME280;50435;43.700;-79.318;2022-12-18T02:23:48;99490.92;;;0.26;52.57
64139;BME280;50435;43.700;-79.318;2022-12-18T02:26:19;99485.95;;;0.21;52.02
64139;BME280;50435;43.700;-79.318;2022-12-18T02:28:53;99483.61;;;0.40;52.26
64139;BME280;50435;43.700;-79.318;2022-12-18T02:31:23;99484.85;;;0.35;52.28
64139;BME280;50435;43.700;-79.318;2022-12-18T02:33:58;99488.27;;;0.24;52.52
64139;BME280;50435;43.700;-79.318;2022-12-18T02:36:28;99488.02;;;0.08;52.49
64139;BME280;50435;43.700;-79.318;2022-12-18T02:38:58;99487.82;;;0.37;52.27
64139;BME280;50435;43.700;-79.318;2022-12-18T02:41:28;99485.59;;;0.26;52.50
64139;BME280;50435;43.700;-79.318;2022-12-18T02:44:00;99481.85;;;0.20;52.61
64139;BME280;50435;43.700;-79.318;2022-12-18T02:46:33;99486.82;;;0.36;52.12
64139;BME280;50435;43.700;-79.318;2022-12-18T02:49:09;99491.56;;;-0.55;52.12
64139;BME280;50435;43.700;-79.318;2022-12-18T02:51:48;99499.20;;;0.04;52.33
64139;BME280;50435;43.700;-79.318;2022-12-18T02:54:28;99495.02;;;-0.09;52.35
64139;BME280;50435;43.700;-79.318;2022-12-18T02:57:07;99492.12;;;-0.90;52.20
64139;BME280;50435;43.700;-79.318;2022-12-18T02:59:44;99494.89;;;0.41;52.14
64139;BME280;50435;43.700;-79.318;2022-12-18T03:02:20;99489.34;;;0.43;52.09
64139;BME280;50435;43.700;-79.318;2022-12-18T03:04:53;99488.71;;;0.31;52.34
64139;BME280;50435;43.700;-79.318;2022-12-18T03:07:43;99488.20;;;0.25;52.39
64139;BME280;50435;43.700;-79.318;2022-12-18T03:10:17;99483.46;;;0.34;52.26
64139;BME280;50435;43.700;-79.318;2022-12-18T03:12:52;99484.42;;;0.10;52.25
64139;BME280;50435;43.700;-79.318;2022-12-18T03:15:25;99485.71;;;0.25;52.33
64139;BME280;50435;43.700;-79.318;2022-12-18T03:17:57;99483.56;;;0.28;52.53
64139;BME280;50435;43.700;-79.318;2022-12-18T03:20:29;99487.19;;;-0.05;52.58
64139;BME280;50435;43.700;-79.318;2022-12-18T03:23:04;99485.00;;;0.26;52.30
64139;BME280;50435;43.700;-79.318;2022-12-18T03:25:35;99485.33;;;0.33;52.29
64139;BME280;50435;43.700;-79.318;2022-12-18T03:28:12;99489.80;;;-0.24;52.49
64139;BME280;50435;43.700;-79.318;2022-12-18T03:30:42;99491.06;;;-0.20;52.40
64139;BME280;50435;43.700;-79.318;2022-12-18T03:33:16;99487.29;;;-0.07;52.69
64139;BME280;50435;43.700;-79.318;2022-12-18T03:35:46;99486.11;;;0.10;52.65
64139;BME280;50435;43.700;-79.318;2022-12-18T03:38:15;99486.78;;;-0.01;52.56
64139;BME280;50435;43.700;-79.318;2022-12-18T03:40:49;99484.30;;;-0.11;52.64
64139;BME280;50435;43.700;-79.318;2022-12-18T03:43:24;99489.41;;;0.06;52.24
64139;BME280;50435;43.700;-79.318;2022-12-18T03:46:00;99490.06;;;0.06;52.64
64139;BME280;50435;43.700;-79.318;2022-12-18T03:48:32;99490.15;;;-0.03;52.42
64139;BME280;50435;43.700;-79.318;2022-12-18T03:51:07;99494.76;;;-0.12;52.70
64139;BME280;50435;43.700;-79.318;2022-12-18T03:53:43;99491.87;;;0.08;52.98
64139;BME280;50435;43.700;-79.318;2022-12-18T03:56:14;99493.95;;;0.25;52.41
64139;BME280;50435;43.700;-79.318;2022-12-18T03:58:43;99495.43;;;0.21;52.55
64139;BME280;50435;43.700;-79.318;2022-12-18T04:01:16;99493.53;;;0.39;52.05
64139;BME280;50435;43.700;-79.318;2022-12-18T04:03:46;99491.24;;;0.21;52.31
64139;BME280;50435;43.700;-79.318;2022-12-18T04:06:16;99494.50;;;-0.09;52.55
64139;BME280;50435;43.700;-79.318;2022-12-18T04:08:45;99489.78;;;0.29;52.25
64139;BME280;50435;43.700;-79.318;2022-12-18T04:11:13;99492.47;;;0.19;52.43
64139;BME280;50435;43.700;-79.318;2022-12-18T04:13:42;99490.33;;;0.28;52.34
64139;BME280;50435;43.700;-79.318;2022-12-18T04:16:10;99495.43;;;-0.16;52.33
64139;BME280;50435;43.700;-79.318;2022-12-18T04:18:37;99491.77;;;-0.20;52.73
64139;BME280;50435;43.700;-79.318;2022-12-18T04:21:05;99492.58;;;-0.13;52.17
64139;BME280;50435;43.700;-79.318;2022-12-18T04:23:32;99489.47;;;0.35;52.13
64139;BME280;50435;43.700;-79.318;2022-12-18T04:25:59;99488.33;;;-0.45;52.22
64139;BME280;50435;43.700;-79.318;2022-12-18T04:28:26;99487.92;;;-0.07;52.42
64139;BME280;50435;43.700;-79.318;2022-12-18T04:30:54;99489.95;;;0.21;52.23
64139;BME280;50435;43.700;-79.318;2022-12-18T04:33:21;99487.28;;;0.27;52.26
64139;BME280;50435;43.700;-79.318;2022-12-18T04:35:49;99487.17;;;0.25;52.17
64139;BME280;50435;43.700;-79.318;2022-12-18T04:38:16;99487.97;;;0.09;52.64
64139;BME280;50435;43.700;-79.318;2022-12-18T04:40:44;99488.43;;;0.12;52.68
64139;BME280;50435;43.700;-79.318;2022-12-18T04:43:11;99482.09;;;0.04;52.51
64139;BME280;50435;43.700;-79.318;2022-12-18T04:45:39;99486.69;;;0.20;52.66
64139;BME280;50435;43.700;-79.318;2022-12-18T04:48:07;99484.88;;;0.02;52.40
64139;BME280;50435;43.700;-79.318;2022-12-18T04:50:34;99481.72;;;0.16;52.59
64139;BME280;50435;43.700;-79.318;2022-12-18T04:53:02;99484.66;;;-0.22;52.37
64139;BME280;50435;43.700;-79.318;2022-12-18T04:55:29;99487.44;;;0.23;52.64
64139;BME280;50435;43.700;-79.318;2022-12-18T04:57:57;99483.06;;;0.12;52.90
64139;BME280;50435;43.700;-79.318;2022-12-18T05:00:25;99479.55;;;-0.10;52.66
64139;BME280;50435;43.700;-79.318;2022-12-18T05:02:53;99476.61;;;0.14;52.68
64139;BME280;50435;43.700;-79.318;2022-12-18T05:05:20;99480.75;;;0.21;52.46
64139;BME280;50435;43.700;-79.318;2022-12-18T05:07:47;99476.41;;;0.20;52.51
64139;BME280;50435;43.700;-79.318;2022-12-18T05:10:15;99476.52;;;-0.07;52.61
64139;BME280;50435;43.700;-79.318;2022-12-18T05:12:42;99477.01;;;-0.05;52.58
64139;BME280;50435;43.700;-79.318;2022-12-18T05:15:10;99476.34;;;-0.08;52.62
64139;BME280;50435;43.700;-79.318;2022-12-18T05:17:37;99474.15;;;0.13;52.60
64139;BME280;50435;43.700;-79.318;2022-12-18T05:20:05;99474.37;;;-0.09;52.89
64139;BME280;50435;43.700;-79.318;2022-12-18T05:22:32;99471.24;;;0.13;52.84
64139;BME280;50435;43.700;-79.318;2022-12-18T05:25:00;99475.60;;;-0.80;52.49
64139;BME280;50435;43.700;-79.318;2022-12-18T05:27:27;99475.39;;;0.25;52.79
64139;BME280;50435;43.700;-79.318;2022-12-18T05:29:55;99477.14;;;0.17;52.60
64139;BME280;50435;43.700;-79.318;2022-12-18T05:32:23;99480.02;;;-0.04;52.74
64139;BME280;50435;43.700;-79.318;2022-12-18T05:34:50;99484.53;;;-0.26;52.54
64139;BME280;50435;43.700;-79.318;2022-12-18T05:37:17;99486.16;;;0.01;53.03
64139;BME280;50435;43.700;-79.318;2022-12-18T05:39:45;99485.29;;;0.13;52.81
64139;BME280;50435;43.700;-79.318;2022-12-18T05:42:12;99487.84;;;-0.00;53.13
64139;BME280;50435;43.700;-79.318;2022-12-18T05:44:40;99484.13;;;0.19;52.52
64139;BME280;50435;43.700;-79.318;2022-12-18T05:47:07;99486.08;;;-0.21;52.38
64139;BME280;50435;43.700;-79.318;2022-12-18T05:49:34;99488.90;;;0.20;52.47
64139;BME280;50435;43.700;-79.318;2022-12-18T05:52:02;99486.84;;;-0.33;52.79
64139;BME280;50435;43.700;-79.318;2022-12-18T05:54:30;99490.43;;;0.04;52.87
64139;BME280;50435;43.700;-79.318;2022-12-18T05:56:57;99490.64;;;0.02;52.87
64139;BME280;50435;43.700;-79.318;2022-12-18T05:59:25;99488.60;;;0.12;52.78
64139;BME280;50435;43.700;-79.318;2022-12-18T06:01:52;99493.48;;;-0.12;53.23
64139;BME280;50435;43.700;-79.318;2022-12-18T06:04:20;99495.41;;;-0.02;53.09
64139;BME280;50435;43.700;-79.318;2022-12-18T06:06:47;99493.54;;;0.07;52.82
64139;BME280;50435;43.700;-79.318;2022-12-18T06:09:15;99494.24;;;-0.07;52.62
64139;BME280;50435;43.700;-79.318;2022-12-18T06:11:42;99495.03;;;0.13;52.67
64139;BME280;50435;43.700;-79.318;2022-12-18T06:14:10;99493.59;;;0.12;52.85
64139;BME280;50435;43.700;-79.318;2022-12-18T06:16:37;99493.52;;;0.06;52.80
64139;BME280;50435;43.700;-79.318;2022-12-18T06:19:06;99490.59;;;-0.42;52.99
64139;BME280;50435;43.700;-79.318;2022-12-18T06:21:33;99492.19;;;0.07;52.93
64139;BME280;50435;43.700;-79.318;2022-12-18T06:24:01;99490.91;;;-0.40;52.87
64139;BME280;50435;43.700;-79.318;2022-12-18T06:26:28;99490.57;;;-0.04;53.22
64139;BME280;50435;43.700;-79.318;2022-12-18T06:28:55;99487.59;;;-0.01;53.18
64139;BME280;50435;43.700;-79.318;2022-12-18T06:31:23;99488.40;;;-0.16;53.38
64139;BME280;50435;43.700;-79.318;2022-12-18T06:33:51;99491.88;;;-0.03;53.22
64139;BME280;50435;43.700;-79.318;2022-12-18T06:36:18;99497.74;;;-0.25;53.21
64139;BME280;50435;43.700;-79.318;2022-12-18T06:38:46;99497.65;;;-0.01;53.03
64139;BME280;50435;43.700;-79.318;2022-12-18T06:41:15;99488.25;;;0.16;52.77
64139;BME280;50435;43.700;-79.318;2022-12-18T06:43:44;99491.92;;;0.05;53.05
64139;BME280;50435;43.700;-79.318;2022-12-18T06:46:11;99496.98;;;-0.27;53.26
64139;BME280;50435;43.700;-79.318;2022-12-18T06:48:39;99497.45;;;-0.01;53.24
64139;BME280;50435;43.700;-79.318;2022-12-18T06:51:07;99501.76;;;0.10;52.97
64139;BME280;50435;43.700;-79.318;2022-12-18T06:53:35;99498.19;;;-0.01;53.12
64139;BME280;50435;43.700;-79.318;2022-12-18T06:56:03;99500.91;;;-0.15;53.05
64139;BME280;50435;43.700;-79.318;2022-12-18T06:58:32;99498.96;;;0.06;53.12
64139;BME280;50435;43.700;-79.318;2022-12-18T07:01:00;99502.87;;;-0.40;53.17
64139;BME280;50435;43.700;-79.318;2022-12-18T07:03:29;99506.78;;;0.14;52.95
64139;BME280;50435;43.700;-79.318;2022-12-18T07:05:56;99508.99;;;-0.00;53.09
64139;BME280;50435;43.700;-79.318;2022-12-18T07:08:24;99512.09;;;-0.02;53.40
64139;BME280;50435;43.700;-79.318;2022-12-18T07:10:52;99515.33;;;0.12;52.99
64139;BME280;50435;43.700;-79.318;2022-12-18T07:13:19;99514.99;;;0.03;53.14
64139;BME280;50435;43.700;-79.318;2022-12-18T07:15:47;99515.59;;;-0.07;53.33
64139;BME280;50435;43.700;-79.318;2022-12-18T07:18:14;99522.13;;;-0.09;53.44
64139;BME280;50435;43.700;-79.318;2022-12-18T07:20:41;99519.71;;;0.04;53.10
64139;BME280;50435;43.700;-79.318;2022-12-18T07:23:09;99523.49;;;0.08;53.17
64139;BME280;50435;43.700;-79.318;2022-12-18T07:25:37;99520.19;;;-0.33;53.49
64139;BME280;50435;43.700;-79.318;2022-12-18T07:28:05;99522.10;;;-0.24;53.24
64139;BME280;50435;43.700;-79.318;2022-12-18T07:30:32;99525.32;;;-0.04;53.42
64139;BME280;50435;43.700;-79.318;2022-12-18T07:33:00;99529.48;;;-0.76;53.29
64139;BME280;50435;43.700;-79.318;2022-12-18T07:35:28;99533.33;;;-0.14;53.55
64139;BME280;50435;43.700;-79.318;2022-12-18T07:37:55;99532.56;;;0.04;53.17
64139;BME280;50435;43.700;-79.318;2022-12-18T07:40:22;99531.61;;;0.01;53.28
64139;BME280;50435;43.700;-79.318;2022-12-18T07:42:49;99534.56;;;0.06;53.09
64139;BME280;50435;43.700;-79.318;2022-12-18T07:45:17;99537.26;;;-0.29;53.35
64139;BME280;50435;43.700;-79.318;2022-12-18T07:47:44;99536.59;;;-0.03;53.40
64139;BME280;50435;43.700;-79.318;2022-12-18T07:50:12;99541.01;;;-0.28;53.48
64139;BME280;50435;43.700;-79.318;2022-12-18T07:52:39;99542.92;;;-0.09;53.55
64139;BME280;50435;43.700;-79.318;2022-12-18T07:55:08;99544.08;;;-0.28;53.47
64139;BME280;50435;43.700;-79.318;2022-12-18T07:57:35;99548.95;;;-0.20;53.77
64139;BME280;50435;43.700;-79.318;2022-12-18T08:00:04;99547.92;;;-0.44;53.26
64139;BME280;50435;43.700;-79.318;2022-12-18T08:02:32;99551.33;;;-0.25;53.29
64139;BME280;50435;43.700;-79.318;2022-12-18T08:04:59;99545.14;;;-0.30;52.95
64139;BME280;50435;43.700;-79.318;2022-12-18T08:07:27;99546.73;;;0.11;52.91
64139;BME280;50435;43.700;-79.318;2022-12-18T08:09:55;99546.53;;;0.03;53.05
64139;BME280;50435;43.700;-79.318;2022-12-18T08:12:22;99545.83;;;0.03;53.13
64139;BME280;50435;43.700;-79.318;2022-12-18T08:14:50;99551.11;;;-0.40;53.13
64139;BME280;50435;43.700;-79.318;2022-12-18T08:17:19;99553.27;;;0.02;53.25
64139;BME280;50435;43.700;-79.318;2022-12-18T08:19:47;99554.00;;;0.37;53.04
64139;BME280;50435;43.700;-79.318;2022-12-18T08:22:15;99555.37;;;-0.11;53.38
64139;BME280;50435;43.700;-79.318;2022-12-18T08:24:42;99553.98;;;-0.06;53.21
64139;BME280;50435;43.700;-79.318;2022-12-18T08:27:10;99560.06;;;-0.29;53.48
64139;BME280;50435;43.700;-79.318;2022-12-18T08:29:37;99562.47;;;-0.21;53.65
64139;BME280;50435;43.700;-79.318;2022-12-18T08:32:05;99556.78;;;-0.34;53.35
64139;BME280;50435;43.700;-79.318;2022-12-18T08:34:32;99555.34;;;-0.25;53.54
64139;BME280;50435;43.700;-79.318;2022-12-18T08:37:00;99553.33;;;-0.75;53.27
64139;BME280;50435;43.700;-79.318;2022-12-18T08:39:28;99555.91;;;-0.21;53.01
64139;BME280;50435;43.700;-79.318;2022-12-18T08:41:55;99554.66;;;0.05;52.94
64139;BME280;50435;43.700;-79.318;2022-12-18T08:44:22;99552.85;;;0.09;52.96
64139;BME280;50435;43.700;-79.318;2022-12-18T08:46:50;99559.64;;;0.01;52.98
64139;BME280;50435;43.700;-79.318;2022-12-18T08:49:18;99559.76;;;-0.32;53.14
64139;BME280;50435;43.700;-79.318;2022-12-18T08:51:45;99555.62;;;-0.10;53.26
64139;BME280;50435;43.700;-79.318;2022-12-18T08:54:13;99556.73;;;-0.52;53.66
64139;BME280;50435;43.700;-79.318;2022-12-18T08:56:40;99560.38;;;-0.16;53.28
64139;BME280;50435;43.700;-79.318;2022-12-18T08:59:08;99558.44;;;-0.18;52.97
64139;BME280;50435;43.700;-79.318;2022-12-18T09:01:36;99560.06;;;-0.39;53.32
64139;BME280;50435;43.700;-79.318;2022-12-18T09:04:03;99557.90;;;-0.53;53.07
64139;BME280;50435;43.700;-79.318;2022-12-18T09:06:31;99565.37;;;-0.23;53.38
64139;BME280;50435;43.700;-79.318;2022-12-18T09:08:59;99563.27;;;-0.53;53.04
64139;BME280;50435;43.700;-79.318;2022-12-18T09:11:28;99561.51;;;-0.16;53.18
64139;BME280;50435;43.700;-79.318;2022-12-18T09:13:56;99563.40;;;-0.11;53.01
64139;BME280;50435;43.700;-79.318;2022-12-18T09:16:25;99557.70;;;-0.12;53.00
64139;BME280;50435;43.700;-79.318;2022-12-18T09:18:52;99563.27;;;-0.28;53.43
64139;BME280;50435;43.700;-79.318;2022-12-18T09:21:21;99564.03;;;-0.24;53.43
64139;BME280;50435;43.700;-79.318;2022-12-18T09:23:50;99563.89;;;-0.15;53.05
64139;BME280;50435;43.700;-79.318;2022-12-18T09:26:18;99562.43;;;-0.39;53.01
64139;BME280;50435;43.700;-79.318;2022-12-18T09:28:46;99558.65;;;-0.03;52.73
64139;BME280;50435;43.700;-79.318;2022-12-18T09:31:13;99560.13;;;-0.32;52.93
64139;BME280;50435;43.700;-79.318;2022-12-18T09:33:41;99555.24;;;-0.07;52.91
64139;BME280;50435;43.700;-79.318;2022-12-18T09:36:11;99552.11;;;-0.17;52.91
64139;BME280;50435;43.700;-79.318;2022-12-18T09:38:39;99557.37;;;-0.29;53.25
64139;BME280;50435;43.700;-79.318;2022-12-18T09:41:18;99562.80;;;-0.32;53.20
64139;BME280;50435;43.700;-79.318;2022-12-18T09:43:52;99569.83;;;-0.05;52.85
64139;BME280;50435;43.700;-79.318;2022-12-18T09:46:25;99573.52;;;-0.39;52.87
64139;BME280;50435;43.700;-79.318;2022-12-18T09:48:57;99572.17;;;-0.19;52.82
64139;BME280;50435;43.700;-79.318;2022-12-18T09:51:28;99570.47;;;-0.23;52.95
64139;BME280;50435;43.700;-79.318;2022-12-18T09:54:04;99574.51;;;-0.48;52.81
64139;BME280;50435;43.700;-79.318;2022-12-18T09:56:38;99577.63;;;-0.16;52.90
64139;BME280;50435;43.700;-79.318;2022-12-18T09:59:19;99573.52;;;-0.29;52.65
64139;BME280;50435;43.700;-79.318;2022-12-18T10:01:48;99576.05;;;-0.23;52.90
64139;BME280;50435;43.700;-79.318;2022-12-18T10:04:15;99578.21;;;-0.18;52.89
64139;BME280;50435;43.700;-79.318;2022-12-18T10:06:48;99582.69;;;-0.29;53.05
64139;BME280;50435;43.700;-79.318;2022-12-18T10:09:27;99579.93;;;-0.33;53.25
64139;BME280;50435;43.700;-79.318;2022-12-18T10:12:02;99581.97;;;-0.33;53.22
64139;BME280;50435;43.700;-79.318;2022-12-18T10:14:40;99585.40;;;-0.40;53.34
64139;BME280;50435;43.700;-79.318;2022-12-18T10:17:16;99589.59;;;-0.22;53.18
64139;BME280;50435;43.700;-79.318;2022-12-18T10:19:51;99587.08;;;-0.22;53.02
64139;BME280;50435;43.700;-79.318;2022-12-18T10:22:28;99587.68;;;-0.36;53.17
64139;BME280;50435;43.700;-79.318;2022-12-18T10:25:04;99584.69;;;-0.71;52.90
64139;BME280;50435;43.700;-79.318;2022-12-18T10:27:32;99588.16;;;-0.23;52.95
64139;BME280;50435;43.700;-79.318;2022-12-18T10:30:01;99585.68;;;-0.56;52.59
64139;BME280;50435;43.700;-79.318;2022-12-18T10:32:31;99592.14;;;-0.39;53.27
64139;BME280;50435;43.700;-79.318;2022-12-18T10:34:59;99585.68;;;-0.45;52.95
64139;BME280;50435;43.700;-79.318;2022-12-18T10:37:28;99588.48;;;-0.45;52.78
64139;BME280;50435;43.700;-79.318;2022-12-18T10:40:14;99589.53;;;-0.09;52.60
64139;BME280;50435;43.700;-79.318;2022-12-18T10:42:42;99592.57;;;-0.10;52.42
64139;BME280;50435;43.700;-79.318;2022-12-18T10:45:13;99592.41;;;-0.69;53.32
64139;BME280;50435;43.700;-79.318;2022-12-18T10:47:46;99595.79;;;-0.28;52.93
64139;BME280;50435;43.700;-79.318;2022-12-18T10:50:22;99596.67;;;-0.29;52.84
64139;BME280;50435;43.700;-79.318;2022-12-18T10:52:57;99600.05;;;-0.36;52.97
64139;BME280;50435;43.700;-79.318;2022-12-18T10:55:30;99599.66;;;-0.17;52.65
64139;BME280;50435;43.700;-79.318;2022-12-18T10:58:15;99595.28;;;-0.18;52.60
64139;BME280;50435;43.700;-79.318;2022-12-18T11:00:43;99596.67;;;-0.18;52.58
64139;BME280;50435;43.700;-79.318;2022-12-18T11:03:31;99601.01;;;-0.22;52.80
64139;BME280;50435;43.700;-79.318;2022-12-18T11:06:03;99600.12;;;-0.37;52.86
64139;BME280;50435;43.700;-79.318;2022-12-18T11:08:32;99598.34;;;-0.34;52.88
64139;BME280;50435;43.700;-79.318;2022-12-18T11:11:00;99597.02;;;-0.67;52.68
64139;BME280;50435;43.700;-79.318;2022-12-18T11:13:29;99598.41;;;-0.27;52.78
64139;BME280;50435;43.700;-79.318;2022-12-18T11:15:58;99600.39;;;-0.48;53.27
64139;BME280;50435;43.700;-79.318;2022-12-18T11:18:28;99598.90;;;-0.17;52.52
64139;BME280;50435;43.700;-79.318;2022-12-18T11:20:58;99605.75;;;-0.15;52.31
64139;BME280;50435;43.700;-79.318;2022-12-18T11:23:27;99609.91;;;-0.34;52.70
64139;BME280;50435;43.700;-79.318;2022-12-18T11:25:57;99612.40;;;-0.32;52.96
64139;BME280;50435;43.700;-79.318;2022-12-18T11:28:29;99614.28;;;-0.57;52.85
64139;BME280;50435;43.700;-79.318;2022-12-18T11:31:32;99616.87;;;-1.24;52.76
64139;BME280;50435;43.700;-79.318;2022-12-18T11:34:04;99620.99;;;-0.84;53.00
64139;BME280;50435;43.700;-79.318;2022-12-18T11:36:36;99625.65;;;-0.42;52.85
64139;BME280;50435;43.700;-79.318;2022-12-18T11:39:14;99620.73;;;-0.62;52.92
64139;BME280;50435;43.700;-79.318;2022-12-18T11:41:49;99625.43;;;-0.25;52.60
64139;BME280;50435;43.700;-79.318;2022-12-18T11:44:24;99630.40;;;-0.40;52.51
64139;BME280;50435;43.700;-79.318;2022-12-18T11:46:59;99626.74;;;-0.26;52.53
64139;BME280;50435;43.700;-79.318;2022-12-18T11:49:32;99628.53;;;-0.38;52.65
64139;BME280;50435;43.700;-79.318;2022-12-18T11:52:03;99629.84;;;-0.78;52.61
64139;BME280;50435;43.700;-79.318;2022-12-18T11:54:32;99628.89;;;-0.62;52.90
64139;BME280;50435;43.700;-79.318;2022-12-18T11:57:05;99629.71;;;-0.32;52.52
64139;BME280;50435;43.700;-79.318;2022-12-18T11:59:41;99630.76;;;-0.20;52.41
64139;BME280;50435;43.700;-79.318;2022-12-18T12:02:33;99635.79;;;-0.46;52.47
64139;BME280;50435;43.700;-79.318;2022-12-18T12:05:23;99631.42;;;-0.29;52.40
64139;BME280;50435;43.700;-79.318;2022-12-18T12:07:55;99635.73;;;-0.40;52.85
64139;BME280;50435;43.700;-79.318;2022-12-18T12:10:37;99636.84;;;-0.21;52.26
64139;BME280;50435;43.700;-79.318;2022-12-18T12:13:21;99634.32;;;-0.59;52.56
64139;BME280;50435;43.700;-79.318;2022-12-18T12:16:00;99637.74;;;-0.44;52.67
64139;BME280;50435;43.700;-79.318;2022-12-18T12:18:38;99636.76;;;-0.52;52.91
64139;BME280;50435;43.700;-79.318;2022-12-18T12:21:13;99640.07;;;-0.37;52.59
64139;BME280;50435;43.700;-79.318;2022-12-18T12:23:48;99641.67;;;-0.44;52.59
64139;BME280;50435;43.700;-79.318;2022-12-18T12:26:24;99640.08;;;-0.57;52.38
64139;BME280;50435;43.700;-79.318;2022-12-18T12:29:06;99640.08;;;-0.32;52.32
64139;BME280;50435;43.700;-79.318;2022-12-18T12:31:52;99648.06;;;-0.46;52.60
64139;BME280;50435;43.700;-79.318;2022-12-18T12:34:25;99647.48;;;-0.61;52.99
64139;BME280;50435;43.700;-79.318;2022-12-18T12:37:05;99651.40;;;-0.53;52.82
64139;BME280;50435;43.700;-79.318;2022-12-18T12:39:39;99656.67;;;-0.44;52.64
64139;BME280;50435;43.700;-79.318;2022-12-18T12:42:14;99652.93;;;-0.59;52.87
64139;BME280;50435;43.700;-79.318;2022-12-18T12:44:47;99657.27;;;-0.48;52.64
64139;BME280;50435;43.700;-79.318;2022-12-18T12:47:18;99656.36;;;-0.45;52.62
64139;BME280;50435;43.700;-79.318;2022-12-18T12:49:48;99656.93;;;-0.03;52.75
64139;BME280;50435;43.700;-79.318;2022-12-18T12:52:23;99660.94;;;-0.65;53.07
64139;BME280;50435;43.700;-79.318;2022-12-18T12:54:54;99659.88;;;-0.54;52.86
64139;BME280;50435;43.700;-79.318;2022-12-18T12:57:27;99660.27;;;-0.47;52.45
64139;BME280;50435;43.700;-79.318;2022-12-18T13:00:02;99660.75;;;-0.36;52.29
64139;BME280;50435;43.700;-79.318;2022-12-18T13:02:35;99664.67;;;-0.58;52.79